Aviation Digital Data Service (ADDS)

Output produced by METARs form (0741 UTC 24 October 2014)
found at http://aviationweather.gov/adds/metars/
 
KAUG 240520Z 2406/2506 36013G23KT 5SM -RA BR SCT007 OVC010 
     FM241300 34012G22KT P6SM -SHRA BKN015 OVC035 
     FM241800 34014G24KT P6SM VCSH BKN025 OVC040